Time;durP1;ratioP1;P1;durP2;ratioP2;P2;SDS_P1;SDS_P2;PMS_P1;PMS_P2;Temp;Humidity;BMP_temperature;BMP_pressure;BME280_temperature;BME280_humidity;BME280_pressure;Samples;Min_cycle;Max_cycle;Signal;HPM_P1;HPM_P2
2023/03/08 00:02:18;;;;;;;;;30.33;27.00;;;;;8.19;68.33;99443.38;5039748;28;45427;-76
2023/03/08 00:04:43;;;;;;;;;26.33;24.00;;;;;8.48;68.16;99483.56;5039399;28;45315;-78
2023/03/08 00:07:10;;;;;;;;;21.33;20.33;;;;;8.14;68.39;99438.56;5038603;28;45488;-75
2023/03/08 00:09:37;;;;;;;;;25.00;22.67;;;;;7.92;68.70;99408.22;5021499;28;45580;-75
2023/03/08 00:12:02;;;;;;;;;29.33;23.67;;;;;8.46;68.91;99487.38;5018362;28;45262;-74
2023/03/08 00:14:27;;;;;;;;;22.67;20.67;;;;;8.05;69.01;99418.38;5022261;28;45435;-76
2023/03/08 00:16:53;;;;;;;;;24.00;21.33;;;;;8.17;69.13;99440.91;5024252;28;45258;-75
2023/03/08 00:19:18;;;;;;;;;27.00;24.00;;;;;8.37;69.35;99470.63;5019784;28;45464;-76
2023/03/08 00:21:44;;;;;;;;;27.67;23.67;;;;;7.68;69.44;99359.69;5039017;28;45437;-74
2023/03/08 00:24:11;;;;;;;;;26.33;23.00;;;;;7.15;69.93;99276.97;5039279;28;45448;-75
2023/03/08 00:26:36;;;;;;;;;30.00;26.00;;;;;8.05;70.11;99422.84;5037869;28;45442;-75
2023/03/08 00:29:01;;;;;;;;;24.33;21.00;;;;;8.08;70.13;99422.50;5037485;28;48149;-75
2023/03/08 00:31:27;;;;;;;;;22.00;21.33;;;;;8.01;70.16;99405.59;5039703;28;45420;-75
2023/03/08 00:33:54;;;;;;;;;27.67;23.67;;;;;8.04;70.09;99406.13;5039233;28;45411;-75
2023/03/08 00:36:20;;;;;;;;;23.67;19.67;;;;;8.28;70.29;99449.56;5039446;28;45231;-73
2023/03/08 00:38:47;;;;;;;;;22.33;19.33;;;;;8.32;70.52;99443.75;5038608;28;46422;-74
2023/03/08 00:41:12;;;;;;;;;28.67;22.00;;;;;8.32;70.36;99435.81;5038635;28;46174;-76
2023/03/08 00:43:38;;;;;;;;;24.67;19.67;;;;;8.26;70.77;99430.34;5037920;28;45316;-75
2023/03/08 00:46:04;;;;;;;;;27.00;22.00;;;;;8.13;70.15;99393.75;5037624;28;45241;-76
2023/03/08 00:48:29;;;;;;;;;23.67;22.00;;;;;6.92;70.31;99194.78;5037400;28;47714;-73
2023/03/08 00:50:55;;;;;;;;;20.33;19.33;;;;;7.34;70.48;99260.03;5037204;28;45452;-76
2023/03/08 00:53:20;;;;;;;;;20.67;18.33;;;;;8.08;71.00;99390.75;5037699;28;45357;-75
2023/03/08 00:55:51;;;;;;;;;24.67;19.67;;;;;7.92;70.85;99349.19;5040238;28;45384;-76
2023/03/08 00:58:17;;;;;;;;;23.00;21.67;;;;;8.05;71.04;99383.13;5037666;28;47808;-75
2023/03/08 01:00:43;;;;;;;;;21.33;19.33;;;;;7.86;71.75;99349.84;5021047;28;45259;-76
2023/03/08 01:03:08;;;;;;;;;23.00;20.67;;;;;7.96;71.92;99354.97;5019236;28;45505;-73
2023/03/08 01:05:41;;;;;;;;;27.00;22.67;;;;;7.91;72.22;99347.53;5018699;28;45407;-77
2023/03/08 01:08:07;;;;;;;;;27.33;24.00;;;;;7.33;72.50;99274.25;5017212;28;47370;-75
2023/03/08 01:10:33;;;;;;;;;22.00;20.33;;;;;7.88;72.81;99347.84;5018284;28;45191;-77
2023/03/08 01:12:59;;;;;;;;;22.33;18.67;;;;;7.74;72.37;99316.72;5017186;28;45848;-75
2023/03/08 01:15:24;;;;;;;;;20.67;19.00;;;;;7.84;72.91;99318.25;5030146;28;45590;-77
2023/03/08 01:17:50;;;;;;;;;27.67;23.33;;;;;7.79;72.72;99309.09;5036734;28;47094;-75
2023/03/08 01:20:15;;;;;;;;;24.00;21.33;;;;;7.47;72.98;99260.44;5037627;28;45561;-76
2023/03/08 01:22:40;;;;;;;;;21.00;19.33;;;;;7.78;72.48;99310.09;5036924;28;45503;-74
2023/03/08 01:25:06;;;;;;;;;24.67;23.33;;;;;7.80;73.28;99308.94;5035430;28;45569;-75
2023/03/08 01:27:32;;;;;;;;;15.67;15.67;;;;;7.31;73.06;99218.91;5032331;28;46353;-74
2023/03/08 01:29:57;;;;;;;;;23.67;20.67;;;;;7.79;72.69;99296.72;5035309;28;45647;-73
2023/03/08 01:32:22;;;;;;;;;23.00;19.67;;;;;7.39;73.23;99226.00;5036743;28;45358;-73
2023/03/08 01:34:48;;;;;;;;;24.00;20.33;;;;;7.28;73.39;99213.09;5027076;28;45304;-75
2023/03/08 01:37:13;;;;;;;;;21.33;19.00;;;;;7.55;73.58;99236.66;5036462;28;46227;-73
2023/03/08 01:39:38;;;;;;;;;21.00;17.67;;;;;7.55;73.08;99236.66;5035831;28;45476;-73
2023/03/08 01:42:08;;;;;;;;;20.33;19.67;;;;;7.72;73.06;99271.91;5035473;28;48557;-75
2023/03/08 01:45:04;;;;;;;;;24.00;23.00;;;;;7.65;73.61;99256.84;5037941;28;45436;-75
2023/03/08 01:47:34;;;;;;;;;28.67;23.33;;;;;7.31;73.85;99181.06;5037626;28;46836;-74
2023/03/08 01:50:09;;;;;;;;;27.33;23.33;;;;;7.67;72.91;99241.66;5032630;28;45262;-75
2023/03/08 01:52:48;;;;;;;;;21.33;19.67;;;;;7.62;73.54;99227.09;5020781;28;45304;-75
2023/03/08 01:55:15;;;;;;;;;21.33;19.67;;;;;7.37;72.93;99172.47;5021872;28;45481;-76
2023/03/08 01:57:44;;;;;;;;;16.67;16.33;;;;;7.61;73.64;99214.03;5016613;28;47620;-75
2023/03/08 02:00:17;;;;;;;;;20.67;18.00;;;;;7.44;73.88;99176.16;5035675;28;45248;-75
2023/03/08 02:02:48;;;;;;;;;24.33;22.33;;;;;7.29;74.06;99144.22;5037697;28;45318;-75
2023/03/08 02:05:16;;;;;;;;;20.67;17.33;;;;;7.73;73.59;99211.88;5036404;28;45510;-76
2023/03/08 02:07:41;;;;;;;;;20.67;17.33;;;;;7.77;73.69;99207.91;5026733;28;46580;-73
2023/03/08 02:10:08;;;;;;;;;18.00;16.33;;;;;7.76;73.68;99199.16;5017623;28;45341;-74
2023/03/08 02:12:35;;;;;;;;;18.00;17.67;;;;;7.48;73.87;99139.63;5036418;28;45439;-74
2023/03/08 02:15:03;;;;;;;;;21.33;19.33;;;;;7.83;74.17;99186.13;5037562;28;45206;-77
2023/03/08 02:17:29;;;;;;;;;19.00;16.00;;;;;7.88;73.76;99189.91;5036930;28;46457;-75
2023/03/08 02:20:05;;;;;;;;;16.67;15.00;;;;;7.80;73.72;99165.25;5037203;28;45348;-75
2023/03/08 02:22:31;;;;;;;;;23.33;21.67;;;;;7.94;74.13;99185.78;5037180;28;45425;-75
2023/03/08 02:24:56;;;;;;;;;24.67;21.33;;;;;7.86;73.31;99185.78;5023189;28;45515;-74
2023/03/08 02:27:24;;;;;;;;;23.00;17.67;;;;;7.73;74.44;99161.63;5016997;28;45353;-74
2023/03/08 02:29:50;;;;;;;;;22.67;21.00;;;;;7.81;74.15;99157.19;5017307;28;45283;-75
2023/03/08 02:32:15;;;;;;;;;18.00;15.67;;;;;7.73;75.16;99159.81;5017245;28;45471;-77
2023/03/08 02:34:41;;;;;;;;;21.67;17.67;;;;;7.41;74.92;99091.00;5018965;28;45460;-75
2023/03/08 02:37:06;;;;;;;;;23.00;20.67;;;;;7.49;75.32;99089.22;5035504;28;46011;-75
2023/03/08 02:39:31;;;;;;;;;23.00;18.67;;;;;7.57;74.94;99097.13;5036965;28;45405;-73
2023/03/08 02:41:57;;;;;;;;;21.67;21.67;;;;;7.39;75.26;99067.38;5036292;28;45396;-74
2023/03/08 02:44:22;;;;;;;;;22.67;19.67;;;;;7.49;75.03;99068.06;5035953;28;45431;-76
2023/03/08 02:46:48;;;;;;;;;17.33;16.67;;;;;7.47;75.59;99062.13;5036863;28;46252;-75
2023/03/08 02:49:13;;;;;;;;;23.00;18.67;;;;;7.52;75.40;99061.63;5036750;28;45278;-74
2023/03/08 02:51:38;;;;;;;;;21.33;20.00;;;;;7.36;75.47;99025.41;5035740;28;45200;-74
2023/03/08 02:54:04;;;;;;;;;21.00;21.00;;;;;7.66;75.42;99070.72;5037295;28;45316;-75
2023/03/08 02:56:30;;;;;;;;;27.00;23.33;;;;;7.79;75.58;99078.94;5035286;28;47582;-72
2023/03/08 02:58:55;;;;;;;;;23.67;22.00;;;;;7.77;75.31;99075.66;5034423;28;45489;-75
2023/03/08 03:01:20;;;;;;;;;19.33;18.00;;;;;7.33;75.82;98999.31;5035480;28;45388;-74
2023/03/08 03:03:45;;;;;;;;;20.00;14.33;;;;;7.76;75.22;99053.66;5036459;28;45543;-76
2023/03/08 03:06:17;;;;;;;;;22.33;19.33;;;;;7.63;75.25;99014.50;5040766;28;45358;-77
2023/03/08 03:08:43;;;;;;;;;21.33;17.00;;;;;7.13;75.47;98921.34;5039488;28;45353;-76
2023/03/08 03:11:19;;;;;;;;;19.00;16.67;;;;;6.92;75.74;98885.72;5040715;28;45234;-76
2023/03/08 03:13:45;;;;;;;;;22.00;21.00;;;;;7.22;76.01;98944.16;5040552;28;45455;-78
2023/03/08 03:16:13;;;;;;;;;20.67;20.00;;;;;7.64;76.47;98986.25;5038973;28;45400;-75
2023/03/08 03:18:39;;;;;;;;;22.00;20.33;;;;;7.49;76.40;98945.59;5038650;28;45634;-75
2023/03/08 03:21:07;;;;;;;;;22.67;17.67;;;;;7.71;76.31;98967.88;5038860;28;45484;-75
2023/03/08 03:23:33;;;;;;;;;25.00;17.33;;;;;7.46;76.17;98912.41;5040408;28;45241;-74
2023/03/08 03:26:10;;;;;;;;;18.67;17.00;;;;;7.68;76.06;98970.84;5039696;28;46704;-75
2023/03/08 03:28:36;;;;;;;;;23.67;20.33;;;;;7.76;76.25;98953.13;5039844;28;45439;-73
2023/03/08 03:31:06;;;;;;;;;21.00;17.33;;;;;7.70;76.40;98950.34;5038634;28;45575;-75
2023/03/08 03:33:32;;;;;;;;;16.00;16.00;;;;;7.50;76.20;98884.63;5044783;28;45448;-75
2023/03/08 03:35:57;;;;;;;;;13.67;12.00;;;;;7.60;76.25;98890.53;5043833;28;66265;-75
2023/03/08 03:38:22;;;;;;;;;18.33;15.67;;;;;7.73;75.93;98916.44;5040051;28;45347;-75
2023/03/08 03:40:48;;;;;;;;;17.33;17.33;;;;;7.52;76.85;98887.09;5038650;28;45564;-75
2023/03/08 03:43:13;;;;;;;;;22.00;20.00;;;;;6.66;77.14;98748.56;5038606;28;45229;-75
2023/03/08 03:45:38;;;;;;;;;20.00;19.00;;;;;7.63;77.39;98892.03;5039604;28;45510;-75
2023/03/08 03:48:04;;;;;;;;;19.00;18.67;;;;;7.58;77.85;98891.69;5038170;28;45283;-75
2023/03/08 03:50:29;;;;;;;;;19.33;18.00;;;;;7.53;77.59;98862.28;5028191;28;45306;-76
2023/03/08 03:52:54;;;;;;;;;19.67;16.33;;;;;7.56;77.81;98860.13;5036589;28;45689;-75
2023/03/08 03:55:20;;;;;;;;;14.67;14.67;;;;;7.48;77.88;98868.09;5034635;28;47843;-75
2023/03/08 03:57:45;;;;;;;;;17.33;17.33;;;;;7.50;78.24;98850.25;5035993;28;45473;-74
2023/03/08 04:00:11;;;;;;;;;16.67;14.00;;;;;6.82;78.03;98731.06;5039548;28;45728;-74
2023/03/08 04:02:36;;;;;;;;;20.33;16.67;;;;;7.55;77.90;98844.44;5039461;28;45329;-75
2023/03/08 04:05:02;;;;;;;;;16.33;14.00;;;;;7.37;78.01;98810.28;5038480;28;51696;-76
2023/03/08 04:07:27;;;;;;;;;18.67;15.33;;;;;7.20;77.42;98769.06;5037957;28;46174;-76
2023/03/08 04:09:52;;;;;;;;;15.33;14.00;;;;;7.33;78.21;98782.56;5039618;28;45439;-73
2023/03/08 04:12:18;;;;;;;;;9.67;8.33;;;;;7.07;78.20;98745.00;5039688;28;45352;-77
2023/03/08 04:14:43;;;;;;;;;12.67;12.67;;;;;7.23;78.29;98750.22;5039163;28;46321;-75
2023/03/08 04:17:09;;;;;;;;;14.33;14.33;;;;;7.31;77.98;98752.84;5037302;28;45550;-75
2023/03/08 04:19:34;;;;;;;;;15.00;11.67;;;;;7.61;78.35;98801.47;5039155;28;45510;-76
2023/03/08 04:22:00;;;;;;;;;16.33;14.00;;;;;7.56;78.35;98787.91;5038093;28;45649;-74
2023/03/08 04:24:26;;;;;;;;;11.00;9.67;;;;;7.66;78.15;98791.19;5039224;28;46058;-77
2023/03/08 04:26:51;;;;;;;;;18.00;14.33;;;;;7.38;78.27;98742.38;5039472;28;45166;-74
2023/03/08 04:29:17;;;;;;;;;14.33;11.00;;;;;7.10;78.50;98707.66;5039433;28;45265;-75
2023/03/08 04:31:42;;;;;;;;;14.33;13.33;;;;;6.63;79.23;98610.78;5038155;28;45500;-76
2023/03/08 04:34:07;;;;;;;;;13.33;11.67;;;;;7.55;79.24;98762.47;5039085;28;45743;-76
2023/03/08 04:36:33;;;;;;;;;14.67;13.00;;;;;7.60;79.36;98768.88;5038940;28;45385;-76
2023/03/08 04:38:58;;;;;;;;;15.00;11.00;;;;;7.65;79.12;98770.19;5037621;28;45230;-75
2023/03/08 04:41:24;;;;;;;;;12.00;12.00;;;;;7.32;79.26;98712.19;5037740;28;45606;-75
2023/03/08 04:43:52;;;;;;;;;9.33;9.33;;;;;7.57;79.22;98757.81;5037098;28;48370;-77
2023/03/08 04:46:19;;;;;;;;;11.00;10.00;;;;;6.86;79.00;98632.00;5038409;28;45402;-75
2023/03/08 04:48:45;;;;;;;;;9.00;8.67;;;;;7.49;79.37;98756.06;5038730;28;45625;-74
2023/03/08 04:51:13;;;;;;;;;10.67;9.67;;;;;7.30;79.30;98719.47;5038756;28;45542;-75
2023/03/08 04:53:40;;;;;;;;;12.00;10.00;;;;;7.08;79.47;98662.91;5038624;28;45954;-74
2023/03/08 04:56:07;;;;;;;;;9.67;9.67;;;;;7.24;80.10;98693.75;5038824;28;45513;-77
2023/03/08 04:58:34;;;;;;;;;9.67;9.67;;;;;6.68;79.96;98601.34;5037762;28;45356;-77
2023/03/08 05:01:06;;;;;;;;;11.00;7.00;;;;;7.48;80.34;98727.97;5037238;28;45530;-77
2023/03/08 05:03:32;;;;;;;;;8.67;8.67;;;;;7.61;80.27;98736.19;5036675;28;47641;-74
2023/03/08 05:05:57;;;;;;;;;5.67;5.67;;;;;7.28;80.15;98685.28;5038342;28;45434;-73
2023/03/08 05:08:22;;;;;;;;;7.33;6.33;;;;;7.21;80.16;98667.66;5038254;28;50444;-75
2023/03/08 05:10:52;;;;;;;;;11.00;10.00;;;;;7.61;80.71;98738.00;5037956;28;45409;-73
2023/03/08 05:13:17;;;;;;;;;7.00;7.00;;;;;7.26;80.46;98670.59;5039573;28;46702;-74
2023/03/08 05:15:43;;;;;;;;;6.00;6.00;;;;;7.68;80.49;98727.53;5019412;28;45716;-74
2023/03/08 05:18:08;;;;;;;;;11.33;8.67;;;;;6.83;80.79;98584.78;5028043;28;45320;-74
2023/03/08 05:20:33;;;;;;;;;12.00;8.33;;;;;7.38;80.85;98669.19;5037626;28;45475;-75
2023/03/08 05:22:59;;;;;;;;;10.00;7.00;;;;;7.59;81.18;98676.50;5035189;28;48954;-75
2023/03/08 05:25:24;;;;;;;;;6.33;6.33;;;;;7.65;80.74;98686.41;5036730;28;45278;-75
2023/03/08 05:27:49;;;;;;;;;6.33;5.33;;;;;7.73;80.66;98686.31;5036298;28;45307;-73
2023/03/08 05:30:15;;;;;;;;;7.00;6.33;;;;;7.72;81.14;98691.78;5027721;28;45523;-76
2023/03/08 05:32:40;;;;;;;;;6.00;6.00;;;;;7.39;81.20;98639.13;5035549;28;47410;-77
2023/03/08 05:35:06;;;;;;;;;8.33;6.00;;;;;7.33;81.60;98616.84;5037944;28;45378;-74
2023/03/08 05:37:31;;;;;;;;;7.00;6.00;;;;;7.76;81.32;98671.91;5037717;28;45462;-76
2023/03/08 05:39:59;;;;;;;;;6.00;6.00;;;;;7.88;81.23;98674.00;5037013;28;45427;-76
2023/03/08 05:42:26;;;;;;;;;7.00;4.67;;;;;7.94;81.20;98672.44;5040171;28;45533;-75
2023/03/08 05:44:51;;;;;;;;;6.33;6.33;;;;;7.93;81.30;98692.78;5037938;28;45431;-74
2023/03/08 05:47:17;;;;;;;;;4.33;4.33;;;;;7.69;81.10;98644.53;5037813;28;45263;-73
2023/03/08 05:49:42;;;;;;;;;6.00;6.00;;;;;8.01;81.06;98691.91;5019189;28;45558;-75
2023/03/08 05:52:07;;;;;;;;;9.33;7.00;;;;;8.00;81.54;98673.53;5032681;28;46523;-77
2023/03/08 05:54:33;;;;;;;;;6.00;6.00;;;;;7.36;81.46;98583.13;5036102;28;45253;-78
2023/03/08 05:56:58;;;;;;;;;7.00;6.67;;;;;7.67;81.72;98626.22;5038244;28;45481;-76
2023/03/08 05:59:25;;;;;;;;;6.00;5.67;;;;;7.85;81.82;98641.78;5036567;28;45486;-75
2023/03/08 06:01:51;;;;;;;;;5.33;5.33;;;;;7.97;81.97;98658.84;5038448;28;45577;-75
2023/03/08 06:04:16;;;;;;;;;6.00;5.00;;;;;7.88;82.36;98636.13;5037661;28;45459;-75
2023/03/08 06:06:41;;;;;;;;;5.67;5.67;;;;;8.13;82.48;98673.78;5017161;28;45655;-76
2023/03/08 06:09:07;;;;;;;;;9.33;7.00;;;;;8.03;82.52;98650.22;5018369;28;45487;-75
2023/03/08 06:11:32;;;;;;;;;6.67;5.33;;;;;8.02;82.08;98624.75;5019359;28;46302;-76
2023/03/08 06:13:57;;;;;;;;;6.00;5.00;;;;;7.25;82.02;98510.38;5021142;28;45388;-77
2023/03/08 06:16:23;;;;;;;;;6.67;6.00;;;;;8.29;82.42;98678.94;5018922;28;46018;-75
2023/03/08 06:18:48;;;;;;;;;5.00;5.00;;;;;8.24;82.68;98666.25;5017852;28;45357;-78
2023/03/08 06:21:16;;;;;;;;;2.67;2.67;;;;;8.00;82.40;98618.81;5017140;28;46651;-73
2023/03/08 06:23:42;;;;;;;;;11.33;8.00;;;;;8.45;82.25;98694.69;5034985;28;45845;-78
2023/03/08 06:26:09;;;;;;;;;7.33;7.00;;;;;7.65;82.70;98548.06;5036980;28;45217;-75
2023/03/08 06:28:36;;;;;;;;;6.00;6.00;;;;;8.51;83.41;98672.78;5037230;28;45517;-76
2023/03/08 06:31:02;;;;;;;;;7.67;7.67;;;;;8.54;83.16;98698.91;5037208;28;46514;-75
2023/03/08 06:33:30;;;;;;;;;8.33;7.00;;;;;8.58;83.04;98698.53;5036035;28;45466;-77
2023/03/08 06:36:09;;;;;;;;;8.00;5.00;;;;;8.38;83.01;98651.38;5035705;28;45488;-75
2023/03/08 06:38:37;;;;;;;;;6.00;6.00;;;;;8.60;83.31;98675.34;5037012;28;45596;-77
2023/03/08 06:41:03;;;;;;;;;5.00;5.00;;;;;8.66;83.43;98690.53;5034371;28;45557;-78
2023/03/08 06:43:29;;;;;;;;;6.00;6.00;;;;;8.81;83.38;98708.06;5036374;28;45498;-75
2023/03/08 06:45:55;;;;;;;;;6.67;6.67;;;;;8.62;83.55;98676.81;5035632;28;45483;-74
2023/03/08 06:48:20;;;;;;;;;8.00;7.00;;;;;8.39;83.17;98593.97;5037533;28;45574;-76
2023/03/08 06:50:46;;;;;;;;;4.00;4.00;;;;;8.90;83.27;98658.44;5036838;28;48103;-75
2023/03/08 06:53:12;;;;;;;;;3.00;3.00;;;;;9.02;83.30;98669.41;5038480;28;45272;-74
2023/03/08 06:55:39;;;;;;;;;7.00;6.00;;;;;6.27;83.36;98218.06;5034458;28;45378;-77
2023/03/08 06:58:05;;;;;;;;;4.33;4.00;;;;;9.29;83.52;98687.28;5037426;28;45494;-72
2023/03/08 07:00:31;;;;;;;;;4.00;4.00;;;;;8.54;83.70;98555.06;5035861;28;45636;-73
2023/03/08 07:02:57;;;;;;;;;5.33;4.33;;;;;8.92;83.77;98590.19;5035459;28;45328;-74
2023/03/08 07:05:22;;;;;;;;;6.00;3.00;;;;;9.54;84.42;98678.97;5035326;28;45850;-75
2023/03/08 07:07:48;;;;;;;;;4.33;3.33;;;;;9.49;84.31;98668.13;5036880;28;45452;-73
2023/03/08 07:10:16;;;;;;;;;8.33;6.33;;;;;9.53;84.12;98661.41;5035237;28;48826;-73
2023/03/08 07:12:45;;;;;;;;;2.00;2.00;;;;;9.64;83.92;98666.25;5035732;28;45317;-74
2023/03/08 07:15:13;;;;;;;;;8.00;7.00;;;;;9.89;83.51;98695.88;5037110;28;45334;-75
2023/03/08 07:17:39;;;;;;;;;2.00;2.00;;;;;9.86;83.99;98683.81;5020102;28;45644;-73
2023/03/08 07:20:06;;;;;;;;;1.67;1.67;;;;;9.47;84.07;98609.94;5016180;28;45391;-74
2023/03/08 07:22:32;;;;;;;;;2.33;2.33;;;;;10.10;83.70;98695.88;5031670;28;45335;-80
2023/03/08 07:24:57;;;;;;;;;6.33;5.00;;;;;10.12;84.03;98677.09;5039070;28;45490;-75
2023/03/08 07:27:22;;;;;;;;;1.00;1.00;;;;;10.16;84.39;98679.16;5026564;28;45555;-73
2023/03/08 07:29:48;;;;;;;;;2.00;2.00;;;;;10.29;84.07;98676.66;5033167;28;45782;-73
2023/03/08 07:32:13;;;;;;;;;1.67;1.67;;;;;9.99;83.83;98620.19;5043803;28;45461;-73
2023/03/08 07:34:38;;;;;;;;;2.67;2.67;;;;;10.45;84.28;98672.91;5037488;28;48012;-74
2023/03/08 07:37:10;;;;;;;;;3.67;2.67;;;;;9.57;83.94;98544.13;5035799;28;45198;-73
2023/03/08 07:39:35;;;;;;;;;4.33;4.00;;;;;10.64;84.12;98692.66;5025599;28;45470;-75
2023/03/08 07:42:01;;;;;;;;;3.33;3.33;;;;;10.74;83.71;98692.28;5035164;28;59479;-78
2023/03/08 07:44:26;;;;;;;;;1.33;1.33;;;;;10.54;83.99;98655.78;5039599;28;45657;-77
2023/03/08 07:46:51;;;;;;;;;1.00;1.00;;;;;10.68;83.78;98677.94;5035206;28;45277;-77
2023/03/08 07:49:17;;;;;;;;;2.00;1.00;;;;;10.87;83.79;98682.56;5033957;28;62481;-76
2023/03/08 07:51:42;;;;;;;;;2.00;0.00;;;;;10.94;83.72;98677.28;5036305;28;45396;-74
2023/03/08 07:54:10;;;;;;;;;1.00;1.00;;;;;11.07;83.49;98687.97;5034816;28;45235;-76
2023/03/08 07:56:35;;;;;;;;;3.67;3.67;;;;;11.21;83.06;98700.34;5023838;28;45356;-75
2023/03/08 07:59:01;;;;;;;;;0.00;0.00;;;;;10.44;83.04;98546.41;5018937;28;45424;-80
2023/03/08 08:01:26;;;;;;;;;3.67;1.33;;;;;11.43;82.53;98687.72;5033426;28;45477;-75
2023/03/08 08:03:51;;;;;;;;;2.33;2.33;;;;;11.74;83.03;98703.16;5069924;28;45686;-76
2023/03/08 08:06:17;;;;;;;;;2.33;2.33;;;;;11.95;81.57;98656.94;5037619;28;45537;-77
2023/03/08 08:08:42;;;;;;;;;2.00;2.00;;;;;12.64;79.36;98695.69;5039050;28;45565;-75
2023/03/08 08:11:15;;;;;;;;;1.00;1.00;;;;;12.40;77.22;98537.22;5032888;28;45449;-75
2023/03/08 08:13:41;;;;;;;;;1.00;1.00;;;;;14.10;74.02;98712.75;5026769;28;45523;-76
2023/03/08 08:16:07;;;;;;;;;4.33;3.00;;;;;14.58;72.00;98720.22;5038052;28;46061;-76
2023/03/08 08:18:34;;;;;;;;;3.67;1.67;;;;;14.69;69.88;98710.69;5036795;28;46125;-73
2023/03/08 08:21:07;;;;;;;;;2.33;1.00;;;;;14.77;69.51;98718.41;5039320;28;45446;-74
2023/03/08 08:23:33;;;;;;;;;3.00;1.33;;;;;14.08;69.19;98613.28;5025969;28;45539;-78
2023/03/08 08:25:59;;;;;;;;;4.67;4.67;;;;;14.29;69.64;98678.91;5034874;28;45395;-80
2023/03/08 08:28:26;;;;;;;;;4.00;4.00;;;;;14.43;70.38;98719.72;5027394;28;45735;-80
2023/03/08 08:31:00;;;;;;;;;4.00;3.00;;;;;14.21;70.39;98716.56;5040217;28;45207;-76
2023/03/08 08:33:30;;;;;;;;;1.67;0.33;;;;;14.10;71.03;98717.28;5039206;28;45445;-75
2023/03/08 08:35:56;;;;;;;;;0.33;0.33;;;;;13.75;71.40;98679.47;5035431;28;45441;-75
2023/03/08 08:38:22;;;;;;;;;1.33;1.33;;;;;13.52;72.24;98678.19;5034368;28;45495;-78
2023/03/08 08:40:48;;;;;;;;;1.50;0.75;;;;;13.66;72.76;98729.66;5037191;28;45398;-75
2023/03/08 08:43:13;;;;;;;;;2.67;2.67;;;;;11.51;73.17;98391.34;5037834;28;45288;-76
2023/03/08 08:45:46;;;;;;;;;2.33;1.00;;;;;13.44;73.83;98701.63;5039073;28;45950;-76
2023/03/08 08:48:12;;;;;;;;;1.67;1.67;;;;;13.48;74.20;98733.03;5057198;28;48635;-75
2023/03/08 08:50:39;;;;;;;;;0.67;0.67;;;;;13.10;75.12;98683.03;5030715;28;45977;-77
2023/03/08 08:53:05;;;;;;;;;1.67;0.67;;;;;13.27;75.99;98719.97;5037281;28;45538;-76
2023/03/08 08:55:30;;;;;;;;;0.67;0.67;;;;;12.76;76.78;98654.00;5038449;28;45593;-78
2023/03/08 08:57:56;;;;;;;;;2.33;2.00;;;;;13.20;76.96;98753.84;5039173;28;45474;-78
2023/03/08 09:00:21;;;;;;;;;0.67;0.67;;;;;13.17;77.76;98732.88;5039540;28;45463;-77
2023/03/08 09:02:47;;;;;;;;;0.67;0.67;;;;;12.74;77.46;98670.22;5038335;28;45420;-75
2023/03/08 09:05:12;;;;;;;;;2.00;1.00;;;;;12.91;78.04;98699.09;5034355;28;45534;-75
2023/03/08 09:07:37;;;;;;;;;2.00;2.00;;;;;12.74;78.23;98653.41;5037766;28;47762;-77
2023/03/08 09:10:03;;;;;;;;;0.00;0.00;;;;;12.73;77.71;98665.09;5029306;28;47016;-80
2023/03/08 09:12:29;;;;;;;;;0.67;0.67;;;;;13.19;77.96;98741.53;5032840;28;45534;-73
2023/03/08 09:14:54;;;;;;;;;1.33;1.33;;;;;13.24;77.83;98733.75;5035272;28;45331;-73
2023/03/08 09:17:20;;;;;;;;;1.33;1.33;;;;;13.36;77.94;98724.84;5037646;28;45697;-77
2023/03/08 09:19:45;;;;;;;;;0.67;0.67;;;;;12.59;77.57;98597.66;5046246;28;46159;-74
2023/03/08 09:22:10;;;;;;;;;0.67;0.67;;;;;13.50;76.92;98719.47;5037733;28;45417;-74
2023/03/08 09:24:36;;;;;;;;;7.33;5.00;;;;;13.65;76.69;98741.38;5040956;28;45530;-74
2023/03/08 09:27:04;;;;;;;;;1.67;0.67;;;;;13.53;76.03;98700.34;5036940;28;46731;-74
2023/03/08 09:29:29;;;;;;;;;1.33;0.67;;;;;13.43;75.79;98678.66;5033984;28;45609;-73
2023/03/08 09:31:55;;;;;;;;;2.33;1.33;;;;;13.79;75.37;98726.91;5040750;28;45843;-72
2023/03/08 09:34:20;;;;;;;;;1.67;0.67;;;;;14.10;74.62;98754.69;5037667;28;45205;-72
2023/03/08 09:36:46;;;;;;;;;1.00;1.00;;;;;13.90;74.47;98720.06;5033862;28;46648;-72
2023/03/08 09:39:12;;;;;;;;;1.67;0.67;;;;;14.13;74.18;98764.94;5034527;28;45580;-75
2023/03/08 09:41:43;;;;;;;;;1.00;1.00;;;;;14.02;74.47;98734.41;5037624;28;45431;-72
2023/03/08 09:44:42;;;;;;;;;3.67;1.67;;;;;14.17;74.35;98744.78;5042910;28;45514;-70
2023/03/08 09:47:38;;;;;;;;;4.67;2.00;;;;;14.28;74.32;98752.09;5038070;28;45821;-74
2023/03/08 09:50:08;;;;;;;;;3.67;3.00;;;;;13.94;73.84;98691.91;5039004;28;45340;-70
2023/03/08 09:52:38;;;;;;;;;1.67;0.67;;;;;13.57;73.79;98627.63;5037572;28;45367;-73
2023/03/08 09:55:12;;;;;;;;;1.00;0.67;;;;;14.52;73.34;98755.88;5038618;28;45457;-73
2023/03/08 09:57:46;;;;;;;;;7.67;6.33;;;;;14.57;73.15;98756.03;5024759;28;46619;-73
2023/03/08 10:00:20;;;;;;;;;3.67;2.00;;;;;14.62;72.76;98756.22;5037231;28;45550;-84
2023/03/08 10:03:01;;;;;;;;;12.67;11.67;;;;;14.70;72.56;98768.47;5045196;28;45413;-76
2023/03/08 10:05:40;;;;;;;;;4.00;1.00;;;;;14.30;71.69;98696.56;5042684;28;45313;-72
2023/03/08 10:08:24;;;;;;;;;5.00;4.00;;;;;14.98;72.27;98778.72;5033849;28;47289;-74
2023/03/08 10:11:06;;;;;;;;;2.00;2.00;;;;;14.53;71.08;98669.25;5037438;28;45522;-71
2023/03/08 10:13:37;;;;;;;;;4.67;1.67;;;;;15.25;70.28;98758.69;5030304;28;45282;-74
2023/03/08 10:16:24;;;;;;;;;4.00;2.00;;;;;15.51;69.83;98779.81;5037967;28;45649;-75
2023/03/08 10:19:14;;;;;;;;;3.67;1.00;;;;;15.69;68.78;98797.75;5036445;28;46690;-74
2023/03/08 10:21:41;;;;;;;;;1.00;1.00;;;;;15.53;67.55;98744.75;5037266;28;45407;-74
2023/03/08 10:24:32;;;;;;;;;0.00;0.00;;;;;15.75;67.50;98750.50;5036232;28;45419;-74
2023/03/08 10:27:08;;;;;;;;;2.25;2.00;;;;;16.09;66.99;98773.94;5024219;28;45521;-72
2023/03/08 10:29:34;;;;;;;;;1.33;1.33;;;;;16.20;67.09;98777.69;5046971;28;45520;-72
2023/03/08 10:31:59;;;;;;;;;2.33;2.00;;;;;16.28;66.65;98777.41;5038306;28;45379;-73
2023/03/08 10:34:29;;;;;;;;;3.00;3.00;;;;;16.25;66.38;98785.09;5028588;28;45352;-71
2023/03/08 10:37:05;;;;;;;;;2.67;0.00;;;;;16.12;66.33;98776.19;5036857;28;45534;-72
2023/03/08 10:39:30;;;;;;;;;1.67;1.67;;;;;15.96;66.67;98770.63;5036171;28;45509;-77
2023/03/08 10:41:59;;;;;;;;;0.67;0.67;;;;;16.01;66.77;98784.97;5032229;28;46851;-73
2023/03/08 10:44:32;;;;;;;;;2.00;2.00;;;;;15.99;67.55;98792.44;5036850;28;45403;-75
2023/03/08 10:46:57;;;;;;;;;2.67;2.67;;;;;15.84;67.71;98783.19;5035728;28;45491;-71
2023/03/08 10:49:23;;;;;;;;;3.00;2.00;;;;;15.59;68.33;98748.44;5035329;28;48586;-73
2023/03/08 10:51:57;;;;;;;;;5.00;3.00;;;;;15.74;69.20;98797.09;5035414;28;45579;-73
2023/03/08 10:54:24;;;;;;;;;4.00;2.00;;;;;15.79;68.54;98811.44;5035721;28;45609;-77
2023/03/08 10:56:55;;;;;;;;;3.33;3.33;;;;;15.77;68.98;98802.00;5027596;28;45499;-72
2023/03/08 10:59:31;;;;;;;;;1.00;1.00;;;;;15.76;68.74;98803.03;5031432;28;45630;-74
2023/03/08 11:02:14;;;;;;;;;3.33;1.00;;;;;15.84;68.73;98802.75;5040655;28;45673;-74
2023/03/08 11:04:58;;;;;;;;;2.33;2.00;;;;;15.84;68.56;98800.06;5033743;28;45391;-72
2023/03/08 11:07:31;;;;;;;;;3.33;1.00;;;;;15.84;68.28;98796.56;5043920;28;45409;-76
2023/03/08 11:10:24;;;;;;;;;3.33;2.00;;;;;15.94;68.45;98799.53;5035312;28;45637;-78
2023/03/08 11:13:19;;;;;;;;;1.00;1.00;;;;;15.72;67.76;98759.81;5041588;28;45494;-78
2023/03/08 11:15:54;;;;;;;;;1.00;0.00;;;;;15.89;67.59;98764.53;5035115;28;45496;-79
2023/03/08 11:18:41;;;;;;;;;4.00;2.00;;;;;16.34;67.48;98815.88;5035781;28;45470;-76
2023/03/08 11:21:18;;;;;;;;;1.00;1.00;;;;;16.42;66.68;98802.16;5034960;28;45492;-76
2023/03/08 11:24:03;;;;;;;;;2.00;2.00;;;;;16.46;66.61;98797.97;5033153;28;45496;-74
2023/03/08 11:26:34;;;;;;;;;3.00;3.00;;;;;15.31;66.26;98609.72;5035743;28;45467;-78
2023/03/08 11:29:18;;;;;;;;;2.00;1.00;;;;;16.50;67.22;98796.47;5034007;28;45418;-78
2023/03/08 11:32:18;;;;;;;;;1.67;0.33;;;;;16.48;66.88;98801.25;5025646;28;46812;-78
2023/03/08 11:34:59;;;;;;;;;2.00;2.00;;;;;16.52;66.64;98804.28;5039197;28;45687;-74
2023/03/08 11:37:41;;;;;;;;;3.00;2.00;;;;;16.11;67.34;98754.97;5038791;28;45595;-77